createdAt,value
2018-05-08T00:01:10.653Z,1.80
2018-05-08T00:03:38.176Z,1.60
2018-05-08T00:06:05.714Z,1.97
2018-05-08T00:08:33.225Z,1.87
2018-05-08T00:11:01.509Z,1.83
2018-05-08T00:13:29.062Z,1.80
2018-05-08T00:15:56.592Z,1.70
2018-05-08T00:18:24.113Z,1.70
2018-05-08T00:20:52.420Z,1.90
2018-05-08T00:23:19.949Z,2.00
2018-05-08T00:25:47.461Z,1.90
2018-05-08T00:28:14.995Z,1.70
2018-05-08T00:30:43.272Z,1.90
2018-05-08T00:33:10.789Z,1.90
2018-05-08T00:35:38.349Z,2.00
2018-05-08T00:38:05.865Z,1.70
2018-05-08T00:40:34.186Z,1.70
2018-05-08T00:43:01.886Z,2.07
2018-05-08T00:45:29.402Z,1.80
2018-05-08T00:47:56.917Z,1.80
2018-05-08T00:50:24.446Z,1.90
2018-05-08T00:52:51.965Z,1.90
2018-05-08T00:55:19.477Z,1.90
2018-05-08T00:57:47.005Z,1.90
2018-05-08T01:00:15.278Z,1.80
2018-05-08T01:02:43.549Z,2.03
2018-05-08T01:05:11.078Z,2.00
2018-05-08T01:07:38.620Z,1.60
2018-05-08T01:10:06.130Z,2.10
2018-05-08T01:12:33.657Z,1.83
2018-05-08T01:15:01.177Z,1.90
2018-05-08T01:17:28.703Z,1.63
2018-05-08T01:19:56.343Z,1.70
2018-05-08T01:22:23.917Z,1.63
2018-05-08T01:24:51.449Z,1.70
2018-05-08T01:27:19.742Z,1.97
2018-05-08T01:29:47.265Z,1.83
2018-05-08T01:32:14.785Z,1.60
2018-05-08T01:34:42.322Z,1.70
2018-05-08T01:37:10.596Z,1.80
2018-05-08T01:39:38.980Z,1.70
2018-05-08T01:42:06.445Z,2.10
2018-05-08T01:44:35.013Z,1.77
2018-05-08T01:47:03.446Z,1.80
2018-05-08T01:49:30.974Z,1.80
2018-05-08T01:51:59.251Z,1.80
2018-05-08T01:54:26.790Z,2.00
2018-05-08T01:56:54.325Z,1.90
2018-05-08T01:59:21.845Z,2.00
2018-05-08T02:01:49.384Z,2.10
2018-05-08T02:04:16.950Z,1.87
2018-05-08T02:06:44.489Z,1.97
2018-05-08T02:09:11.998Z,1.90
2018-05-08T02:11:40.431Z,2.00
2018-05-08T02:14:07.945Z,2.20
2018-05-08T02:16:36.273Z,2.00
2018-05-08T02:19:03.943Z,2.40
2018-05-08T02:21:31.475Z,2.27
2018-05-08T02:23:59.762Z,2.07
2018-05-08T02:26:28.140Z,1.90
2018-05-08T02:28:56.425Z,2.13
2018-05-08T02:31:24.704Z,2.17
2018-05-08T02:33:53.009Z,1.90
2018-05-08T02:36:20.535Z,1.80
2018-05-08T02:38:48.061Z,1.90
2018-05-08T02:41:15.605Z,2.10
2018-05-08T02:43:43.134Z,1.77
2018-05-08T02:46:11.473Z,1.90
2018-05-08T02:48:39.014Z,1.97
2018-05-08T02:51:06.578Z,1.90
2018-05-08T02:53:34.096Z,2.00
2018-05-08T02:56:02.419Z,1.90
2018-05-08T02:58:29.972Z,1.90
2018-05-08T03:00:57.490Z,2.13
2018-05-08T03:03:25.029Z,1.97
2018-05-08T03:05:52.554Z,2.33
2018-05-08T03:08:20.837Z,2.13
2018-05-08T03:10:49.148Z,1.80
2018-05-08T03:13:16.699Z,2.07
2018-05-08T03:15:44.214Z,1.80
2018-05-08T03:18:13.253Z,1.90
2018-05-08T03:20:41.549Z,1.90
2018-05-08T03:23:09.058Z,2.10
2018-05-08T03:25:36.593Z,2.03
2018-05-08T03:28:04.142Z,2.20
2018-05-08T03:30:31.659Z,2.30
2018-05-08T03:32:59.189Z,1.90
2018-05-08T03:35:26.715Z,1.73
2018-05-08T03:37:54.989Z,1.80
2018-05-08T03:40:23.301Z,2.03
2018-05-08T03:42:50.810Z,1.93
2018-05-08T03:45:19.101Z,2.03
2018-05-08T03:47:47.614Z,2.27
2018-05-08T03:50:15.903Z,2.13
2018-05-08T03:52:43.415Z,2.07
2018-05-08T03:55:11.022Z,1.97
2018-05-08T03:57:39.373Z,2.20
2018-05-08T04:00:06.877Z,1.97
2018-05-08T04:02:46.426Z,2.00
2018-05-08T04:05:25.808Z,2.00
2018-05-08T04:08:06.047Z,1.90
2018-05-08T04:10:33.567Z,2.20
2018-05-08T04:13:01.086Z,2.20
2018-05-08T04:15:28.629Z,2.40
2018-05-08T04:17:56.167Z,2.27
2018-05-08T04:20:23.685Z,2.00
2018-05-08T04:22:51.217Z,2.40
2018-05-08T04:25:18.747Z,2.53
2018-05-08T04:27:47.078Z,1.97
2018-05-08T04:30:15.534Z,2.27
2018-05-08T04:32:43.057Z,2.50
2018-05-08T04:35:11.341Z,2.10
2018-05-08T04:37:39.803Z,2.20
2018-05-08T04:40:08.125Z,2.40
2018-05-08T04:42:36.410Z,1.90
2018-05-08T04:45:03.969Z,2.10
2018-05-08T04:47:32.366Z,1.97
2018-05-08T04:50:00.011Z,2.10
2018-05-08T04:52:28.422Z,2.30
2018-05-08T04:54:55.937Z,1.97
2018-05-08T04:57:24.958Z,2.23
2018-05-08T04:59:52.531Z,2.53
2018-05-08T05:02:20.864Z,2.20
2018-05-08T05:04:48.410Z,2.10
2018-05-08T05:07:15.970Z,2.70
2018-05-08T05:09:43.482Z,2.60
2018-05-08T05:12:11.757Z,2.43
2018-05-08T05:14:40.811Z,2.20
2018-05-08T05:17:08.329Z,2.30
2018-05-08T05:19:36.622Z,2.73
2018-05-08T05:22:04.934Z,2.27
2018-05-08T05:24:32.480Z,2.33
2018-05-08T05:26:59.979Z,2.40
2018-05-08T05:29:27.533Z,2.37
2018-05-08T05:31:55.096Z,2.40
2018-05-08T05:34:22.618Z,2.27
2018-05-08T05:36:50.917Z,2.30
2018-05-08T05:39:18.529Z,2.13
2018-05-08T05:41:46.062Z,2.13
2018-05-08T05:44:13.593Z,2.10
2018-05-08T05:46:41.896Z,2.30
2018-05-08T05:49:09.405Z,1.90
2018-05-08T05:51:37.154Z,2.43
2018-05-08T05:54:04.665Z,2.20
2018-05-08T05:56:32.181Z,2.03
2018-05-08T05:58:59.742Z,2.07
2018-05-08T06:01:27.295Z,2.12
2018-05-08T06:03:54.833Z,2.10
2018-05-08T06:06:23.248Z,2.00
2018-05-08T06:08:50.770Z,2.10
2018-05-08T06:11:18.296Z,2.00
2018-05-08T06:13:45.848Z,2.00
2018-05-08T06:16:13.418Z,1.70
2018-05-08T06:18:40.938Z,1.92
2018-05-08T06:21:09.251Z,1.85
2018-05-08T06:23:37.916Z,1.80
2018-05-08T06:26:05.437Z,1.92
2018-05-08T06:28:33.069Z,2.03
2018-05-08T06:31:00.526Z,2.00
2018-05-08T06:33:28.049Z,1.90
2018-05-08T06:35:55.581Z,1.70
2018-05-08T06:38:23.097Z,1.98
2018-05-08T06:40:51.397Z,1.70
2018-05-08T06:43:18.978Z,1.65
2018-05-08T06:45:46.495Z,1.83
2018-05-08T06:48:14.005Z,2.10
2018-05-08T06:50:41.537Z,1.80
2018-05-08T06:53:09.935Z,2.00
2018-05-08T06:55:37.463Z,1.80
2018-05-08T06:58:05.022Z,1.80
2018-05-08T07:00:32.545Z,1.70
2018-05-08T07:03:00.063Z,1.67
2018-05-08T07:05:28.380Z,1.77
2018-05-08T07:07:55.897Z,1.80
2018-05-08T07:10:24.923Z,1.75
2018-05-08T07:12:53.242Z,1.90
2018-05-08T07:15:20.767Z,1.60
2018-05-08T07:17:49.078Z,1.70
2018-05-08T07:20:16.635Z,1.62
2018-05-08T07:22:44.154Z,1.73
2018-05-08T07:25:12.431Z,1.48
2018-05-08T07:27:39.980Z,1.80
2018-05-08T07:30:07.571Z,1.77
2018-05-08T07:32:35.850Z,1.70
2018-05-08T07:35:03.410Z,2.03
2018-05-08T07:37:31.701Z,1.75
2018-05-08T07:40:00.005Z,1.50
2018-05-08T07:42:27.549Z,1.50
2018-05-08T07:44:55.826Z,1.52
2018-05-08T07:47:24.123Z,1.55
2018-05-08T07:49:52.434Z,1.60
2018-05-08T07:52:19.957Z,1.60
2018-05-08T07:54:48.379Z,1.60
2018-05-08T07:57:15.926Z,1.60
2018-05-08T07:59:44.198Z,1.75
2018-05-08T08:02:12.474Z,1.50
2018-05-08T08:04:40.789Z,1.85
2018-05-08T08:07:08.300Z,1.50
2018-05-08T08:09:35.826Z,1.60
2018-05-08T08:12:03.361Z,1.60
2018-05-08T08:14:31.649Z,1.50
2018-05-08T08:16:59.162Z,1.25
2018-05-08T08:19:26.686Z,1.33
2018-05-08T08:21:54.192Z,1.55
2018-05-08T08:24:21.702Z,1.60
2018-05-08T08:26:49.241Z,1.40
2018-05-08T08:29:17.529Z,1.67
2018-05-08T08:31:45.810Z,1.83
2018-05-08T08:34:14.093Z,1.60
2018-05-08T08:36:42.377Z,1.85
2018-05-08T08:39:10.658Z,1.67
2018-05-08T08:41:38.969Z,1.50
2018-05-08T08:44:06.504Z,1.70
2018-05-08T08:46:34.846Z,1.50
2018-05-08T08:49:02.380Z,1.35
2018-05-08T08:51:29.914Z,1.50
2018-05-08T08:53:58.197Z,1.42
2018-05-08T08:56:26.625Z,1.30
2018-05-08T08:58:54.149Z,1.30
2018-05-08T09:01:22.426Z,1.60
2018-05-08T09:03:50.737Z,1.40
2018-05-08T09:06:18.260Z,1.48
2018-05-08T09:08:45.784Z,1.58
2018-05-08T09:11:13.318Z,1.30
2018-05-08T09:13:40.847Z,1.60
2018-05-08T09:16:08.356Z,1.60
2018-05-08T09:18:35.889Z,1.60
2018-05-08T09:21:04.175Z,1.73
2018-05-08T09:23:32.459Z,1.50
2018-05-08T09:26:00.771Z,1.67
2018-05-08T09:28:29.057Z,1.67
2018-05-08T09:30:56.579Z,1.30
2018-05-08T09:33:24.887Z,1.70
2018-05-08T09:35:52.426Z,1.40
2018-05-08T09:38:20.717Z,1.45
2018-05-08T09:40:49.103Z,1.48
2018-05-08T09:43:16.626Z,1.50
2018-05-08T09:45:44.146Z,1.50
2018-05-08T09:48:11.677Z,1.50
2018-05-08T09:50:39.198Z,1.80
2018-05-08T09:53:06.725Z,1.30
2018-05-08T09:55:34.268Z,1.75
2018-05-08T09:58:02.643Z,1.77
2018-05-08T10:00:30.166Z,1.58
2018-05-08T10:02:57.698Z,1.40
2018-05-08T10:05:25.998Z,2.20
2018-05-08T10:07:53.514Z,1.70
2018-05-08T10:10:21.042Z,1.58
2018-05-08T10:12:48.563Z,2.35
2018-05-08T10:15:16.840Z,1.77
2018-05-08T10:17:45.150Z,1.67
2018-05-08T10:20:12.674Z,2.45
2018-05-08T10:22:40.202Z,2.03
2018-05-08T10:25:07.742Z,2.22
2018-05-08T10:27:35.249Z,1.70
2018-05-08T10:30:02.766Z,2.20
2018-05-08T10:32:30.298Z,2.15
2018-05-08T10:34:57.812Z,1.85
2018-05-08T10:37:25.335Z,2.00
2018-05-08T10:39:53.663Z,1.48
2018-05-08T10:42:21.169Z,1.37
2018-05-08T10:44:48.694Z,1.73
2018-05-08T10:47:16.289Z,1.70
2018-05-08T10:49:43.839Z,1.48
2018-05-08T10:52:11.349Z,1.60
2018-05-08T10:54:39.647Z,1.52
2018-05-08T10:57:07.153Z,1.62
2018-05-08T10:59:34.745Z,1.70
2018-05-08T11:02:03.075Z,1.52
2018-05-08T11:04:30.610Z,1.70
2018-05-08T11:06:58.109Z,1.70
2018-05-08T11:09:25.644Z,1.50
2018-05-08T11:11:53.161Z,1.30
2018-05-08T11:14:20.681Z,1.80
2018-05-08T11:16:48.231Z,1.52
2018-05-08T11:19:15.753Z,1.87
2018-05-08T11:21:43.269Z,1.60
2018-05-08T11:24:10.806Z,1.58
2018-05-08T11:26:39.122Z,1.70
2018-05-08T11:29:06.625Z,1.52
2018-05-08T11:31:34.170Z,1.60
2018-05-08T11:34:01.687Z,1.60
2018-05-08T11:36:29.971Z,1.50
2018-05-08T11:38:58.269Z,1.42
2018-05-08T11:41:25.788Z,1.50
2018-05-08T11:43:53.325Z,1.40
2018-05-08T11:46:20.864Z,1.67
2018-05-08T11:48:48.380Z,1.48
2018-05-08T11:51:15.908Z,1.35
2018-05-08T11:53:43.446Z,1.60
2018-05-08T11:56:10.956Z,1.50
2018-05-08T11:58:38.481Z,1.30
2018-05-08T12:01:06.050Z,1.50
2018-05-08T12:03:33.593Z,1.40
2018-05-08T12:06:01.896Z,1.70
2018-05-08T12:08:29.434Z,1.58
2018-05-08T12:10:57.794Z,1.40
2018-05-08T12:13:25.310Z,1.55
2018-05-08T12:15:52.846Z,1.40
2018-05-08T12:18:21.121Z,1.60
2018-05-08T12:20:49.399Z,1.65
2018-05-08T12:23:17.702Z,1.35
2018-05-08T12:25:45.214Z,1.52
2018-05-08T12:28:12.735Z,1.50
2018-05-08T12:30:40.335Z,1.67
2018-05-08T12:33:08.643Z,1.40
2018-05-08T12:35:36.165Z,1.40
2018-05-08T12:38:03.714Z,1.75
2018-05-08T12:40:31.233Z,1.58
2018-05-08T12:42:58.738Z,1.62
2018-05-08T12:45:26.340Z,1.40
2018-05-08T12:47:54.594Z,1.37
2018-05-08T12:50:22.132Z,1.37
2018-05-08T12:52:50.428Z,1.42
2018-05-08T12:55:17.952Z,1.55
2018-05-08T12:57:46.279Z,1.67
2018-05-08T13:00:13.828Z,1.70
2018-05-08T13:02:41.670Z,1.70
2018-05-08T13:05:10.693Z,1.52
2018-05-08T13:07:39.006Z,1.50
2018-05-08T13:10:06.533Z,1.50
2018-05-08T13:12:34.812Z,1.33
2018-05-08T13:15:03.118Z,1.65
2018-05-08T13:17:30.637Z,1.77
2018-05-08T13:19:58.157Z,1.65
2018-05-08T13:22:26.441Z,2.00
2018-05-08T13:24:53.994Z,2.12
2018-05-08T13:27:21.509Z,1.62
2018-05-08T13:29:49.035Z,1.75
2018-05-08T13:32:16.558Z,1.87
2018-05-08T13:34:44.846Z,1.83
2018-05-08T13:37:13.148Z,1.77
2018-05-08T13:39:40.676Z,1.58
2018-05-08T13:42:08.248Z,1.90
2018-05-08T13:44:36.541Z,1.80
2018-05-08T13:47:04.832Z,1.42
2018-05-08T13:49:33.106Z,1.67
2018-05-08T13:52:01.430Z,1.80
2018-05-08T13:54:28.939Z,1.92
2018-05-08T13:56:57.218Z,1.60
2018-05-08T13:59:25.553Z,1.60
2018-05-08T14:01:53.058Z,1.60
2018-05-08T14:04:20.665Z,1.70
2018-05-08T14:06:48.271Z,1.70
2018-05-08T14:09:15.751Z,2.00
2018-05-08T14:11:44.075Z,1.80
2018-05-08T14:14:11.614Z,1.70
2018-05-08T14:16:39.898Z,2.20
2018-05-08T14:19:08.183Z,1.90
2018-05-08T14:21:35.708Z,2.15
2018-05-08T14:24:03.217Z,2.05
2018-05-08T14:26:30.790Z,2.20
2018-05-08T14:28:58.322Z,1.90
2018-05-08T14:31:26.651Z,1.90
2018-05-08T14:33:54.142Z,1.70
2018-05-08T14:36:21.703Z,2.25
2018-05-08T14:38:49.217Z,2.00
2018-05-08T14:41:16.751Z,2.00
2018-05-08T14:43:45.124Z,2.35
2018-05-08T14:46:12.613Z,2.42
2018-05-08T14:48:40.903Z,1.95
2018-05-08T14:51:09.202Z,2.40
2018-05-08T14:53:36.778Z,1.80
2018-05-08T14:56:04.333Z,2.45
2018-05-08T14:58:31.873Z,2.08
2018-05-08T15:01:00.186Z,1.85
2018-05-08T15:03:27.726Z,2.20
2018-05-08T15:05:56.194Z,2.03
2018-05-08T15:08:23.717Z,2.00
2018-05-08T15:10:51.241Z,2.17
2018-05-08T15:13:19.533Z,1.85
2018-05-08T15:15:47.049Z,2.00
2018-05-08T15:18:14.566Z,2.15
2018-05-08T15:20:42.108Z,2.10
2018-05-08T15:23:10.382Z,2.15
2018-05-08T15:25:38.665Z,1.90
2018-05-08T15:28:06.961Z,1.73
2018-05-08T15:30:34.479Z,2.00
2018-05-08T15:33:01.994Z,2.10
2018-05-08T15:35:29.546Z,1.90
2018-05-08T15:37:57.829Z,1.90
2018-05-08T15:40:25.341Z,2.28
2018-05-08T15:42:52.883Z,2.22
2018-05-08T15:45:20.446Z,2.25
2018-05-08T15:47:47.953Z,2.15
2018-05-08T15:50:17.012Z,2.90
2018-05-08T15:52:44.537Z,2.20
2018-05-08T15:55:12.854Z,2.30
2018-05-08T15:57:41.011Z,2.00
2018-05-08T16:00:08.542Z,2.03
2018-05-08T16:02:36.838Z,2.08
2018-05-08T16:05:05.152Z,2.37
2018-05-08T16:07:32.866Z,2.10
2018-05-08T16:10:00.387Z,2.15
2018-05-08T16:12:27.954Z,1.90
2018-05-08T16:14:55.516Z,2.00
2018-05-08T16:17:23.805Z,2.10
2018-05-08T16:19:51.389Z,2.20
2018-05-08T16:22:18.925Z,2.20
2018-05-08T16:24:46.442Z,2.08
2018-05-08T16:27:13.983Z,2.58
2018-05-08T16:29:41.516Z,2.20
2018-05-08T16:32:09.069Z,2.28
2018-05-08T16:34:37.389Z,2.60
2018-05-08T16:37:04.905Z,2.30
2018-05-08T16:39:33.213Z,2.40
2018-05-08T16:42:00.762Z,2.67
2018-05-08T16:44:28.298Z,2.20
2018-05-08T16:46:55.833Z,2.62
2018-05-08T16:49:23.389Z,2.50
2018-05-08T16:51:50.913Z,2.87
2018-05-08T16:54:19.184Z,2.90
2018-05-08T16:56:47.522Z,2.58
2018-05-08T16:59:15.894Z,2.80
2018-05-08T17:01:43.409Z,2.60
2018-05-08T17:04:11.714Z,2.62
2018-05-08T17:06:39.228Z,2.40
2018-05-08T17:09:07.038Z,2.92
2018-05-08T17:11:35.347Z,2.85
2018-05-08T17:14:02.870Z,2.75
2018-05-08T17:16:30.387Z,2.72
2018-05-08T17:18:57.949Z,2.50
2018-05-08T17:21:25.454Z,2.40
2018-05-08T17:23:53.760Z,2.70
2018-05-08T17:26:22.066Z,2.62
2018-05-08T17:28:49.605Z,2.87
2018-05-08T17:31:17.888Z,2.83
2018-05-08T17:33:46.288Z,2.25
2018-05-08T17:36:13.803Z,2.40
2018-05-08T17:38:41.368Z,2.67
2018-05-08T17:41:08.893Z,2.45
2018-05-08T17:43:36.415Z,3.00
2018-05-08T17:46:04.710Z,2.60
2018-05-08T17:48:33.021Z,11.32
2018-05-08T17:51:00.545Z,4.18
2018-05-08T17:53:28.849Z,2.47
2018-05-08T17:55:56.426Z,5.45
2018-05-08T17:58:23.990Z,2.40
2018-05-08T18:00:51.559Z,9.65
2018-05-08T18:03:19.118Z,2.60
2018-05-08T18:05:47.559Z,2.95
2018-05-08T18:08:15.074Z,3.28
2018-05-08T18:10:42.683Z,2.90
2018-05-08T18:13:10.202Z,2.70
2018-05-08T18:15:37.833Z,2.87
2018-05-08T18:18:06.194Z,2.50
2018-05-08T18:20:33.674Z,3.05
2018-05-08T18:23:01.949Z,2.60
2018-05-08T18:25:30.293Z,2.53
2018-05-08T18:27:57.822Z,3.12
2018-05-08T18:30:25.330Z,2.78
2018-05-08T18:32:52.954Z,2.37
2018-05-08T18:35:20.459Z,3.25
2018-05-08T18:37:47.971Z,2.90
2018-05-08T18:40:16.295Z,2.53
2018-05-08T18:42:43.945Z,2.50
2018-05-08T18:45:11.463Z,2.33
2018-05-08T18:47:39.787Z,2.62
2018-05-08T18:50:08.062Z,2.60
2018-05-08T18:52:35.581Z,2.58
2018-05-08T18:55:03.133Z,2.30
2018-05-08T18:57:30.655Z,2.78
2018-05-08T19:00:03.921Z,3.03
2018-05-08T19:02:32.299Z,3.00
2018-05-08T19:04:59.842Z,3.30
2018-05-08T19:07:27.770Z,2.90
2018-05-08T19:09:55.342Z,2.87
2018-05-08T19:12:23.001Z,2.72
2018-05-08T19:14:56.147Z,3.00
2018-05-08T19:17:23.677Z,2.87
2018-05-08T19:19:56.806Z,2.75
2018-05-08T19:22:24.359Z,2.60
2018-05-08T19:24:51.880Z,2.60
2018-05-08T19:27:19.444Z,2.78
2018-05-08T19:29:52.597Z,2.83
2018-05-08T19:32:20.150Z,3.10
2018-05-08T19:34:53.414Z,2.87
2018-05-08T19:37:26.775Z,3.00
2018-05-08T19:39:55.051Z,2.83
2018-05-08T19:42:23.349Z,2.65
2018-05-08T19:44:50.902Z,2.40
2018-05-08T19:47:19.200Z,3.20
2018-05-08T19:49:46.709Z,3.17
2018-05-08T19:52:14.251Z,3.10
2018-05-08T19:54:41.766Z,3.00
2018-05-08T19:57:10.046Z,3.20
2018-05-08T19:59:38.359Z,2.75
2018-05-08T20:02:05.866Z,3.85
2018-05-08T20:04:33.373Z,3.25
2018-05-08T20:07:00.947Z,3.40
2018-05-08T20:09:28.455Z,3.08
2018-05-08T20:11:55.978Z,3.22
2018-05-08T20:14:23.571Z,3.25
2018-05-08T20:16:51.091Z,3.00
2018-05-08T20:19:18.621Z,3.15
2018-05-08T20:21:46.188Z,3.85
2018-05-08T20:24:13.809Z,3.10
2018-05-08T20:26:41.327Z,3.10
2018-05-08T20:29:08.931Z,3.58
2018-05-08T20:31:36.445Z,3.75
2018-05-08T20:34:03.965Z,3.05
2018-05-08T20:36:31.505Z,3.40
2018-05-08T20:38:59.021Z,3.20
2018-05-08T20:41:26.542Z,3.28
2018-05-08T20:43:54.957Z,2.78
2018-05-08T20:46:23.308Z,2.90
2018-05-08T20:48:50.834Z,3.30
2018-05-08T20:51:19.179Z,3.40
2018-05-08T20:53:46.724Z,3.40
2018-05-08T20:56:14.237Z,3.47
2018-05-08T20:58:42.558Z,3.30
2018-05-08T21:01:10.216Z,3.17
2018-05-08T21:03:37.687Z,3.25
2018-05-08T21:06:05.274Z,3.30
2018-05-08T21:08:32.802Z,4.03
2018-05-08T21:11:00.350Z,3.60
2018-05-08T21:13:29.390Z,3.87
2018-05-08T21:15:56.962Z,3.83
2018-05-08T21:18:24.477Z,3.40
2018-05-08T21:20:52.014Z,3.30
2018-05-08T21:23:19.541Z,3.42
2018-05-08T21:25:47.057Z,3.33
2018-05-08T21:28:20.331Z,3.20
2018-05-08T21:30:53.713Z,3.30
2018-05-08T21:33:21.181Z,3.47
2018-05-08T21:35:48.710Z,3.40
2018-05-08T21:38:17.017Z,3.30
2018-05-08T21:40:44.570Z,2.92
2018-05-08T21:43:12.081Z,3.40
2018-05-08T21:45:39.601Z,3.47
2018-05-08T21:48:07.149Z,3.17
2018-05-08T21:50:36.430Z,3.15
2018-05-08T21:53:03.942Z,3.47
2018-05-08T21:55:31.500Z,3.50
2018-05-08T21:57:59.021Z,3.35
2018-05-08T22:00:28.049Z,3.70
2018-05-08T22:02:56.342Z,3.00
2018-05-08T22:05:23.866Z,3.37
2018-05-08T22:07:51.443Z,3.15
2018-05-08T22:10:19.756Z,3.12
2018-05-08T22:12:47.273Z,3.55
2018-05-08T22:15:14.793Z,3.30
2018-05-08T22:17:42.617Z,3.33
2018-05-08T22:20:10.141Z,3.60
2018-05-08T22:22:37.666Z,3.25
2018-05-08T22:25:05.231Z,3.55
2018-05-08T22:27:32.744Z,3.45
2018-05-08T22:30:00.257Z,3.00
2018-05-08T22:32:28.562Z,3.55
2018-05-08T22:34:56.085Z,3.40
2018-05-08T22:37:24.378Z,3.42
2018-05-08T22:39:52.758Z,3.65
2018-05-08T22:42:21.073Z,3.60
2018-05-08T22:44:48.593Z,3.62
2018-05-08T22:47:16.886Z,3.72
2018-05-08T22:49:46.831Z,3.67
2018-05-08T22:52:15.103Z,3.58
2018-05-08T22:54:42.659Z,3.65
2018-05-08T22:57:10.932Z,3.47
2018-05-08T22:59:38.455Z,3.80
2018-05-08T23:02:05.998Z,3.70
2018-05-08T23:04:33.510Z,3.58
2018-05-08T23:07:01.050Z,3.90
2018-05-08T23:09:28.576Z,3.72
2018-05-08T23:11:56.094Z,3.75
2018-05-08T23:14:23.609Z,3.72
2018-05-08T23:16:51.153Z,3.60
2018-05-08T23:19:18.740Z,3.95
2018-05-08T23:21:46.265Z,3.72
2018-05-08T23:24:14.589Z,3.47
2018-05-08T23:26:42.115Z,3.33
2018-05-08T23:29:10.412Z,3.60
2018-05-08T23:31:38.723Z,3.67
2018-05-08T23:34:06.229Z,3.83
2018-05-08T23:36:33.753Z,3.65
2018-05-08T23:39:01.295Z,3.87
2018-05-08T23:41:28.807Z,3.80
2018-05-08T23:43:56.338Z,3.58
2018-05-08T23:46:23.890Z,4.00
2018-05-08T23:48:51.460Z,3.72
2018-05-08T23:51:18.970Z,3.70
2018-05-08T23:53:46.583Z,3.85
2018-05-08T23:56:14.091Z,3.75
2018-05-08T23:58:41.598Z,3.80
